Country
Station

 

Weather  for  Kelso-Longview Automatic Weather Observing/Reporting System  -  United States    United States

  
13 °C (55 °F)
    
 
 

Current METAR for Kelso-Longview Automatic Weather Observing/Reporting System is :

KKLS 021056Z AUTO 12004KT 10SM SCT016 SCT025 OVC049 13/12 A3003 RMK AO2 SLP174 T01280117 PNO $

 

This is a report for Kelso-Longview Automatic Weather Observing/Reporting System - United States.
 
The report was made 56 minutes ago, at 10:56 UTC .
The wind was blowing at a speed of 2.1 meters per second (4.6 miles per hour) from east/southeast (120°).
 
The temperature was 13 °C (55 °F), with a dew-point at 12 °C (54 °F).
The atmospheric pressure was 1017 hPa (30.03 inHg).
The relative humidity was 93.6%.
 
There were scattered clouds at a height of 488 meters (1600 feet) and scattered clouds at a height of 762 meters (2500 feet). The sky was overcast from a height of 1494 meter (4900 feet)
 
The overall visibility was 16.1 kilometers (10.0 miles).
 

 
 
 
 

Country :   A   B   C   D   E   F   G   H   I   J   K   L   M   N   O   P   Q   R   S   T   U   V   W   Y   Z

 

Site Info  |  Disclaimer  |  Credits  |  Privacy
Contact us  |  Add to favorites
© 2013-2020 METARs - All rights reserved